sensor_id;sensor_type;location;lat;lon;timestamp;pressure;altitude;pressure_sealevel;temperature;humidity
16194;BME280;8204;53.582;10.080;2023-09-12T00:00:50;100751.41;;;24.46;100.00
16194;BME280;8204;53.582;10.080;2023-09-12T00:03:20;100748.63;;;24.41;100.00
16194;BME280;8204;53.582;10.080;2023-09-12T00:05:54;100716.69;;;24.39;100.00
16194;BME280;8204;53.582;10.080;2023-09-12T00:08:20;100713.72;;;24.36;100.00
16194;BME280;8204;53.582;10.080;2023-09-12T00:10:46;100691.47;;;24.35;100.00
16194;BME280;8204;53.582;10.080;2023-09-12T00:13:12;100715.03;;;24.33;100.00
16194;BME280;8204;53.582;10.080;2023-09-12T00:15:38;100719.59;;;24.33;100.00
16194;BME280;8204;53.582;10.080;2023-09-12T00:18:04;100710.09;;;24.26;100.00
16194;BME280;8204;53.582;10.080;2023-09-12T00:20:30;100699.56;;;24.19;100.00
16194;BME280;8204;53.582;10.080;2023-09-12T00:22:56;100655.03;;;24.13;100.00
16194;BME280;8204;53.582;10.080;2023-09-12T00:25:21;100609.69;;;24.07;100.00
16194;BME280;8204;53.582;10.080;2023-09-12T00:27:47;100582.38;;;24.05;100.00
16194;BME280;8204;53.582;10.080;2023-09-12T00:30:14;100547.47;;;24.00;100.00
16194;BME280;8204;53.582;10.080;2023-09-12T00:32:39;100519.59;;;23.96;100.00
16194;BME280;8204;53.582;10.080;2023-09-12T00:35:05;100496.56;;;23.95;100.00
16194;BME280;8204;53.582;10.080;2023-09-12T00:37:31;100469.25;;;23.93;100.00
16194;BME280;8204;53.582;10.080;2023-09-12T00:39:57;100463.81;;;23.88;100.00
16194;BME280;8204;53.582;10.080;2023-09-12T00:42:25;100445.03;;;23.83;100.00
16194;BME280;8204;53.582;10.080;2023-09-12T00:44:51;100433.72;;;23.76;100.00
16194;BME280;8204;53.582;10.080;2023-09-12T00:47:17;100409.06;;;23.74;100.00
16194;BME280;8204;53.582;10.080;2023-09-12T00:49:44;100396.16;;;23.71;100.00
16194;BME280;8204;53.582;10.080;2023-09-12T00:52:11;100390.81;;;23.71;100.00
16194;BME280;8204;53.582;10.080;2023-09-12T00:54:38;100387.84;;;23.67;100.00
16194;BME280;8204;53.582;10.080;2023-09-12T00:57:04;100402.75;;;23.63;100.00
16194;BME280;8204;53.582;10.080;2023-09-12T00:59:30;100366.13;;;23.64;100.00
16194;BME280;8204;53.582;10.080;2023-09-12T01:01:55;100396.63;;;23.63;100.00
16194;BME280;8204;53.582;10.080;2023-09-12T01:04:21;100387.47;;;23.59;100.00
16194;BME280;8204;53.582;10.080;2023-09-12T01:06:47;100380.50;;;23.58;100.00
16194;BME280;8204;53.582;10.080;2023-09-12T01:09:14;100366.31;;;23.57;100.00
16194;BME280;8204;53.582;10.080;2023-09-12T01:11:39;100373.28;;;23.58;100.00
16194;BME280;8204;53.582;10.080;2023-09-12T01:14:06;100381.56;;;23.57;100.00
16194;BME280;8204;53.582;10.080;2023-09-12T01:16:31;100363.91;;;23.56;100.00
16194;BME280;8204;53.582;10.080;2023-09-12T01:18:56;100361.78;;;23.58;100.00
16194;BME280;8204;53.582;10.080;2023-09-12T01:21:47;100382.38;;;23.57;100.00
16194;BME280;8204;53.582;10.080;2023-09-12T01:27:34;100359.84;;;23.53;100.00
16194;BME280;8204;53.582;10.080;2023-09-12T01:30:05;100361.16;;;23.51;100.00
16194;BME280;8204;53.582;10.080;2023-09-12T01:32:32;100350.47;;;23.51;100.00
16194;BME280;8204;53.582;10.080;2023-09-12T01:34:59;100330.13;;;23.50;100.00
16194;BME280;8204;53.582;10.080;2023-09-12T01:37:24;100328.03;;;23.52;100.00
16194;BME280;8204;53.582;10.080;2023-09-12T01:39:51;100326.97;;;23.53;100.00
16194;BME280;8204;53.582;10.080;2023-09-12T01:42:20;100317.63;;;23.55;100.00
16194;BME280;8204;53.582;10.080;2023-09-12T01:44:46;100332.31;;;23.53;100.00
16194;BME280;8204;53.582;10.080;2023-09-12T01:47:15;100330.44;;;23.53;100.00
16194;BME280;8204;53.582;10.080;2023-09-12T01:49:43;100318.69;;;23.54;100.00
16194;BME280;8204;53.582;10.080;2023-09-12T01:52:11;100308.78;;;23.55;100.00
16194;BME280;8204;53.582;10.080;2023-09-12T01:54:38;100337.13;;;23.56;100.00
16194;BME280;8204;53.582;10.080;2023-09-12T01:57:04;100308.78;;;23.55;100.00
16194;BME280;8204;53.582;10.080;2023-09-12T01:59:30;100295.97;;;23.57;100.00
16194;BME280;8204;53.582;10.080;2023-09-12T02:01:55;100320.53;;;23.54;100.00
16194;BME280;8204;53.582;10.080;2023-09-12T02:04:21;100303.41;;;23.55;100.00
16194;BME280;8204;53.582;10.080;2023-09-12T02:06:46;100293.53;;;23.55;100.00
16194;BME280;8204;53.582;10.080;2023-09-12T02:09:12;100311.44;;;23.55;100.00
16194;BME280;8204;53.582;10.080;2023-09-12T02:11:38;100329.38;;;23.54;100.00
16194;BME280;8204;53.582;10.080;2023-09-12T02:14:04;100367.09;;;23.53;100.00
16194;BME280;8204;53.582;10.080;2023-09-12T02:16:31;100372.94;;;23.50;100.00
16194;BME280;8204;53.582;10.080;2023-09-12T02:18:56;100388.94;;;23.45;100.00
16194;BME280;8204;53.582;10.080;2023-09-12T02:21:22;100374.69;;;23.40;100.00
16194;BME280;8204;53.582;10.080;2023-09-12T02:23:47;100365.28;;;23.37;100.00
16194;BME280;8204;53.582;10.080;2023-09-12T02:26:12;100376.47;;;23.34;100.00
16194;BME280;8204;53.582;10.080;2023-09-12T02:28:38;100376.41;;;23.29;100.00
16194;BME280;8204;53.582;10.080;2023-09-12T02:31:09;100358.22;;;23.26;100.00
16194;BME280;8204;53.582;10.080;2023-09-12T02:33:35;100347.22;;;23.23;100.00
16194;BME280;8204;53.582;10.080;2023-09-12T02:36:01;100361.88;;;23.20;100.00
16194;BME280;8204;53.582;10.080;2023-09-12T02:38:27;100343.66;;;23.17;100.00
16194;BME280;8204;53.582;10.080;2023-09-12T02:40:53;100355.41;;;23.16;100.00
16194;BME280;8204;53.582;10.080;2023-09-12T02:43:20;100361.25;;;23.13;100.00
16194;BME280;8204;53.582;10.080;2023-09-12T02:45:46;100359.66;;;23.12;100.00
16194;BME280;8204;53.582;10.080;2023-09-12T02:48:12;100322.47;;;23.11;100.00
16194;BME280;8204;53.582;10.080;2023-09-12T02:50:40;100327.81;;;23.11;100.00
16194;BME280;8204;53.582;10.080;2023-09-12T02:53:06;100318.19;;;23.10;100.00
16194;BME280;8204;53.582;10.080;2023-09-12T02:55:32;100322.69;;;23.09;100.00
16194;BME280;8204;53.582;10.080;2023-09-12T02:57:57;100344.91;;;23.10;100.00
16194;BME280;8204;53.582;10.080;2023-09-12T03:00:23;100369.78;;;23.10;100.00
16194;BME280;8204;53.582;10.080;2023-09-12T03:02:48;100360.94;;;23.10;100.00
16194;BME280;8204;53.582;10.080;2023-09-12T03:05:14;100345.13;;;23.08;100.00
16194;BME280;8204;53.582;10.080;2023-09-12T03:07:39;100352.06;;;23.04;100.00
16194;BME280;8204;53.582;10.080;2023-09-12T03:10:05;100338.69;;;23.04;100.00
16194;BME280;8204;53.582;10.080;2023-09-12T03:12:31;100329.03;;;23.03;100.00
16194;BME280;8204;53.582;10.080;2023-09-12T03:14:57;100323.69;;;23.03;100.00
16194;BME280;8204;53.582;10.080;2023-09-12T03:17:23;100310.34;;;23.03;100.00
16194;BME280;8204;53.582;10.080;2023-09-12T03:19:48;100300.13;;;23.00;100.00
16194;BME280;8204;53.582;10.080;2023-09-12T03:22:14;100317.78;;;23.01;100.00
16194;BME280;8204;53.582;10.080;2023-09-12T03:24:40;100345.00;;;22.98;100.00
16194;BME280;8204;53.582;10.080;2023-09-12T03:27:06;100348.97;;;22.96;100.00
16194;BME280;8204;53.582;10.080;2023-09-12T03:29:32;100350.22;;;22.88;100.00
16194;BME280;8204;53.582;10.080;2023-09-12T03:31:58;100332.56;;;22.87;100.00
16194;BME280;8204;53.582;10.080;2023-09-12T03:34:23;100299.13;;;22.85;100.00
16194;BME280;8204;53.582;10.080;2023-09-12T03:36:49;100298.00;;;22.81;100.00
16194;BME280;8204;53.582;10.080;2023-09-12T03:39:14;100264.56;;;22.78;100.00
16194;BME280;8204;53.582;10.080;2023-09-12T03:41:40;100239.16;;;22.76;100.00
16194;BME280;8204;53.582;10.080;2023-09-12T03:44:06;100231.94;;;22.77;100.00
16194;BME280;8204;53.582;10.080;2023-09-12T03:46:31;100223.94;;;22.77;100.00
16194;BME280;8204;53.582;10.080;2023-09-12T03:48:57;100243.69;;;22.76;100.00
16194;BME280;8204;53.582;10.080;2023-09-12T03:51:22;100212.44;;;22.76;100.00
16194;BME280;8204;53.582;10.080;2023-09-12T03:53:48;100179.56;;;22.76;100.00
16194;BME280;8204;53.582;10.080;2023-09-12T03:56:16;100149.13;;;22.77;100.00
16194;BME280;8204;53.582;10.080;2023-09-12T03:58:43;100152.34;;;22.78;100.00
16194;BME280;8204;53.582;10.080;2023-09-12T04:01:09;100131.53;;;22.80;100.00
16194;BME280;8204;53.582;10.080;2023-09-12T04:03:34;100101.63;;;22.83;100.00
16194;BME280;8204;53.582;10.080;2023-09-12T04:06:00;100097.91;;;22.84;100.00
16194;BME280;8204;53.582;10.080;2023-09-12T04:08:26;100121.16;;;22.84;100.00
16194;BME280;8204;53.582;10.080;2023-09-12T04:10:51;100136.63;;;22.82;100.00
16194;BME280;8204;53.582;10.080;2023-09-12T04:13:17;100125.94;;;22.82;100.00
16194;BME280;8204;53.582;10.080;2023-09-12T04:15:43;100095.50;;;22.83;100.00
16194;BME280;8204;53.582;10.080;2023-09-12T04:18:09;100093.88;;;22.82;100.00
16194;BME280;8204;53.582;10.080;2023-09-12T04:20:36;100066.38;;;22.81;100.00
16194;BME280;8204;53.582;10.080;2023-09-12T04:23:02;100045.78;;;22.82;100.00
16194;BME280;8204;53.582;10.080;2023-09-12T04:25:30;100033.78;;;22.84;100.00
16194;BME280;8204;53.582;10.080;2023-09-12T04:27:56;100020.97;;;22.86;100.00
16194;BME280;8204;53.582;10.080;2023-09-12T04:30:22;100022.59;;;22.87;100.00
16194;BME280;8204;53.582;10.080;2023-09-12T04:32:48;100035.66;;;22.84;100.00
16194;BME280;8204;53.582;10.080;2023-09-12T04:35:15;100058.88;;;22.83;100.00
16194;BME280;8204;53.582;10.080;2023-09-12T04:37:41;100066.91;;;22.83;100.00
16194;BME280;8204;53.582;10.080;2023-09-12T04:40:08;100085.84;;;22.82;100.00
16194;BME280;8204;53.582;10.080;2023-09-12T04:42:34;100063.13;;;22.79;100.00
16194;BME280;8204;53.582;10.080;2023-09-12T04:45:00;100063.91;;;22.80;100.00
16194;BME280;8204;53.582;10.080;2023-09-12T04:47:26;100034.53;;;22.80;100.00
16194;BME280;8204;53.582;10.080;2023-09-12T04:49:52;100023.63;;;22.81;100.00
16194;BME280;8204;53.582;10.080;2023-09-12T04:52:18;100038.53;;;22.77;100.00
16194;BME280;8204;53.582;10.080;2023-09-12T04:54:44;100031.56;;;22.77;100.00
16194;BME280;8204;53.582;10.080;2023-09-12T04:57:09;100040.63;;;22.76;100.00
16194;BME280;8204;53.582;10.080;2023-09-12T04:59:34;100063.09;;;22.75;100.00
16194;BME280;8204;53.582;10.080;2023-09-12T05:02:00;100089.25;;;22.73;100.00
16194;BME280;8204;53.582;10.080;2023-09-12T05:04:26;100082.28;;;22.72;100.00
16194;BME280;8204;53.582;10.080;2023-09-12T05:06:51;100053.41;;;22.69;100.00
16194;BME280;8204;53.582;10.080;2023-09-12T05:09:17;100071.56;;;22.67;100.00
16194;BME280;8204;53.582;10.080;2023-09-12T05:11:42;100076.34;;;22.65;100.00
16194;BME280;8204;53.582;10.080;2023-09-12T05:14:08;100072.88;;;22.64;100.00
16194;BME280;8204;53.582;10.080;2023-09-12T05:16:34;100086.22;;;22.64;100.00
16194;BME280;8204;53.582;10.080;2023-09-12T05:19:00;100077.38;;;22.64;100.00
16194;BME280;8204;53.582;10.080;2023-09-12T05:21:26;100074.97;;;22.62;100.00
16194;BME280;8204;53.582;10.080;2023-09-12T05:23:52;100078.44;;;22.63;100.00
16194;BME280;8204;53.582;10.080;2023-09-12T05:26:18;100091.56;;;22.64;100.00
16194;BME280;8204;53.582;10.080;2023-09-12T05:28:43;100073.94;;;22.63;100.00
16194;BME280;8204;53.582;10.080;2023-09-12T05:31:09;100067.25;;;22.66;100.00
16194;BME280;8204;53.582;10.080;2023-09-12T05:33:34;100076.06;;;22.66;100.00
16194;BME280;8204;53.582;10.080;2023-09-12T05:36:00;100092.38;;;22.65;100.00
16194;BME280;8204;53.582;10.080;2023-09-12T05:38:26;100091.56;;;22.64;100.00
16194;BME280;8204;53.582;10.080;2023-09-12T05:40:51;100075.53;;;22.64;100.00
16194;BME280;8204;53.582;10.080;2023-09-12T05:43:17;100074.72;;;22.64;100.00
16194;BME280;8204;53.582;10.080;2023-09-12T05:45:43;100067.75;;;22.63;100.00
16194;BME280;8204;53.582;10.080;2023-09-12T05:48:08;100065.09;;;22.63;100.00
16194;BME280;8204;53.582;10.080;2023-09-12T05:50:36;100063.50;;;22.62;100.00
16194;BME280;8204;53.582;10.080;2023-09-12T05:53:02;100053.34;;;22.64;100.00
16194;BME280;8204;53.582;10.080;2023-09-12T05:55:27;100044.53;;;22.63;100.00
16194;BME280;8204;53.582;10.080;2023-09-12T05:57:53;100057.06;;;22.63;100.00
16194;BME280;8204;53.582;10.080;2023-09-12T06:00:19;100061.88;;;22.61;100.00
16194;BME280;8204;53.582;10.080;2023-09-12T06:02:46;100074.41;;;22.60;100.00
16194;BME280;8204;53.582;10.080;2023-09-12T06:05:12;100035.72;;;22.63;100.00
16194;BME280;8204;53.582;10.080;2023-09-12T06:07:38;100039.47;;;22.62;100.00
16194;BME280;8204;53.582;10.080;2023-09-12T06:10:06;100029.31;;;22.64;100.00
16194;BME280;8204;53.582;10.080;2023-09-12T06:12:32;100014.91;;;22.65;100.00
16194;BME280;8204;53.582;10.080;2023-09-12T06:14:59;100000.22;;;22.67;100.00
16194;BME280;8204;53.582;10.080;2023-09-12T06:17:25;100008.25;;;22.67;100.00
16194;BME280;8204;53.582;10.080;2023-09-12T06:19:50;100007.72;;;22.65;100.00
16194;BME280;8204;53.582;10.080;2023-09-12T06:22:17;100013.06;;;22.65;100.00
16194;BME280;8204;53.582;10.080;2023-09-12T06:24:43;100018.69;;;22.69;100.00
16194;BME280;8204;53.582;10.080;2023-09-12T06:27:09;100018.16;;;22.72;100.00
16194;BME280;8204;53.582;10.080;2023-09-12T06:29:37;100026.75;;;22.74;100.00
16194;BME280;8204;53.582;10.080;2023-09-12T06:32:03;100020.88;;;22.77;100.00
16194;BME280;8204;53.582;10.080;2023-09-12T06:34:29;100015.84;;;22.80;100.00
16194;BME280;8204;53.582;10.080;2023-09-12T06:36:54;100022.00;;;22.80;100.00
16194;BME280;8204;53.582;10.080;2023-09-12T06:39:20;100032.16;;;22.83;100.00
16194;BME280;8204;53.582;10.080;2023-09-12T06:41:45;100038.56;;;22.82;100.00
16194;BME280;8204;53.582;10.080;2023-09-12T06:44:11;100038.31;;;22.84;100.00
16194;BME280;8204;53.582;10.080;2023-09-12T06:46:37;100043.41;;;22.85;100.00
16194;BME280;8204;53.582;10.080;2023-09-12T06:49:03;100046.63;;;22.87;100.00
16194;BME280;8204;53.582;10.080;2023-09-12T06:51:29;100051.16;;;22.87;100.00
16194;BME280;8204;53.582;10.080;2023-09-12T06:53:55;100056.50;;;22.87;100.00
16194;BME280;8204;53.582;10.080;2023-09-12T06:56:20;100062.69;;;22.87;100.00
16194;BME280;8204;53.582;10.080;2023-09-12T06:58:47;100067.19;;;22.87;100.00
16194;BME280;8204;53.582;10.080;2023-09-12T07:01:12;100061.63;;;22.88;100.00
16194;BME280;8204;53.582;10.080;2023-09-12T07:03:38;100071.22;;;22.89;100.00
16194;BME280;8204;53.582;10.080;2023-09-12T07:06:04;100071.22;;;22.89;100.00
16194;BME280;8204;53.582;10.080;2023-09-12T07:08:31;100064.03;;;22.90;100.00
16194;BME280;8204;53.582;10.080;2023-09-12T07:10:57;100085.16;;;22.91;100.00
16194;BME280;8204;53.582;10.080;2023-09-12T07:13:25;100088.59;;;22.92;100.00
16194;BME280;8204;53.582;10.080;2023-09-12T07:15:51;100074.75;;;22.95;100.00
16194;BME280;8204;53.582;10.080;2023-09-12T07:18:17;100064.84;;;22.95;100.00
16194;BME280;8204;53.582;10.080;2023-09-12T07:20:44;100055.00;;;22.96;100.00
16194;BME280;8204;53.582;10.080;2023-09-12T07:23:10;100052.06;;;22.97;100.00
16194;BME280;8204;53.582;10.080;2023-09-12T07:25:40;100049.94;;;22.99;100.00
16194;BME280;8204;53.582;10.080;2023-09-12T07:28:09;100055.28;;;22.99;100.00
16194;BME280;8204;53.582;10.080;2023-09-12T07:30:35;100063.88;;;23.01;100.00
16194;BME280;8204;53.582;10.080;2023-09-12T07:33:00;100057.47;;;23.02;100.00
16194;BME280;8204;53.582;10.080;2023-09-12T07:35:26;100033.19;;;23.04;100.00
16194;BME280;8204;53.582;10.080;2023-09-12T07:37:52;100034.53;;;23.06;100.00
16194;BME280;8204;53.582;10.080;2023-09-12T07:40:18;100038.81;;;23.07;100.00
16194;BME280;8204;53.582;10.080;2023-09-12T07:42:44;100035.06;;;23.08;100.00
16194;BME280;8204;53.582;10.080;2023-09-12T07:45:10;100030.53;;;23.09;100.00
16194;BME280;8204;53.582;10.080;2023-09-12T07:47:37;100037.72;;;23.08;100.00
16194;BME280;8204;53.582;10.080;2023-09-12T07:50:03;100032.16;;;23.10;100.00
16194;BME280;8204;53.582;10.080;2023-09-12T07:52:29;100044.69;;;23.09;100.00
16194;BME280;8204;53.582;10.080;2023-09-12T07:55:00;100038.03;;;23.12;100.00
16194;BME280;8204;53.582;10.080;2023-09-12T07:57:26;100036.19;;;23.12;100.00
16194;BME280;8204;53.582;10.080;2023-09-12T07:59:53;100035.66;;;23.15;100.00
16194;BME280;8204;53.582;10.080;2023-09-12T08:02:18;100039.69;;;23.18;100.00
16194;BME280;8204;53.582;10.080;2023-09-12T08:04:44;100041.28;;;23.19;100.00
16194;BME280;8204;53.582;10.080;2023-09-12T08:07:09;100042.63;;;23.21;100.00
16194;BME280;8204;53.582;10.080;2023-09-12T08:12:14;100083.03;;;23.25;100.00
16194;BME280;8204;53.582;10.080;2023-09-12T08:14:40;100085.47;;;23.26;100.00
16194;BME280;8204;53.582;10.080;2023-09-12T08:17:06;100093.25;;;23.28;100.00
16194;BME280;8204;53.582;10.080;2023-09-12T08:19:32;100096.47;;;23.30;100.00
16194;BME280;8204;53.582;10.080;2023-09-12T08:21:57;100111.97;;;23.33;100.00
16194;BME280;8204;53.582;10.080;2023-09-12T08:24:23;100113.91;;;23.37;100.00
16194;BME280;8204;53.582;10.080;2023-09-12T08:26:48;100146.00;;;23.37;100.00
16194;BME280;8204;53.582;10.080;2023-09-12T08:29:15;100164.22;;;23.40;100.00
16194;BME280;8204;53.582;10.080;2023-09-12T08:31:40;100198.97;;;23.40;100.00
16194;BME280;8204;53.582;10.080;2023-09-12T08:34:06;100186.13;;;23.42;100.00
16194;BME280;8204;53.582;10.080;2023-09-12T08:36:31;100187.75;;;23.43;100.00
16194;BME280;8204;53.582;10.080;2023-09-12T08:38:58;100172.28;;;23.45;100.00
16194;BME280;8204;53.582;10.080;2023-09-12T08:41:26;100173.63;;;23.48;100.00
16194;BME280;8204;53.582;10.080;2023-09-12T08:43:52;100177.66;;;23.50;100.00
16194;BME280;8204;53.582;10.080;2023-09-12T08:46:20;100188.66;;;23.53;100.00
16194;BME280;8204;53.582;10.080;2023-09-12T08:48:45;100195.34;;;23.56;100.00
16194;BME280;8204;53.582;10.080;2023-09-12T08:51:12;100185.22;;;23.58;100.00
16194;BME280;8204;53.582;10.080;2023-09-12T08:53:37;100196.47;;;23.60;100.00
16194;BME280;8204;53.582;10.080;2023-09-12T08:56:04;100192.47;;;23.62;100.00
16194;BME280;8204;53.582;10.080;2023-09-12T08:58:32;100198.13;;;23.66;100.00
16194;BME280;8204;53.582;10.080;2023-09-12T09:00:59;100221.13;;;23.67;100.00
16194;BME280;8204;53.582;10.080;2023-09-12T09:03:25;100230.75;;;23.68;100.00
16194;BME280;8204;53.582;10.080;2023-09-12T09:05:51;100217.16;;;23.69;100.00
16194;BME280;8204;53.582;10.080;2023-09-12T09:08:18;100235.63;;;23.71;100.00
16194;BME280;8204;53.582;10.080;2023-09-12T09:11:00;100268.31;;;23.73;100.00
16194;BME280;8204;53.582;10.080;2023-09-12T09:13:32;100256.31;;;23.75;100.00
16194;BME280;8204;53.582;10.080;2023-09-12T09:16:17;100255.78;;;23.78;100.00
16194;BME280;8204;53.582;10.080;2023-09-12T09:18:59;100254.44;;;23.81;100.00
16194;BME280;8204;53.582;10.080;2023-09-12T09:21:27;100259.31;;;23.84;100.00
16194;BME280;8204;53.582;10.080;2023-09-12T09:23:54;100279.41;;;23.86;100.00
16194;BME280;8204;53.582;10.080;2023-09-12T09:26:20;100281.31;;;23.91;100.00
16194;BME280;8204;53.582;10.080;2023-09-12T09:29:22;100289.06;;;23.92;100.00
16194;BME280;8204;53.582;10.080;2023-09-12T09:31:51;100291.50;;;23.94;100.00
16194;BME280;8204;53.582;10.080;2023-09-12T09:34:18;100302.19;;;23.94;100.00
16194;BME280;8204;53.582;10.080;2023-09-12T09:36:48;100315.34;;;23.95;100.00
16194;BME280;8204;53.582;10.080;2023-09-12T09:39:16;100317.50;;;23.98;100.00
16194;BME280;8204;53.582;10.080;2023-09-12T09:41:42;100305.47;;;24.01;100.00
16194;BME280;8204;53.582;10.080;2023-09-12T09:44:13;100317.31;;;24.05;100.00
16194;BME280;8204;53.582;10.080;2023-09-12T09:46:38;100315.72;;;24.09;100.00
16194;BME280;8204;53.582;10.080;2023-09-12T09:49:05;100316.81;;;24.13;100.00
16194;BME280;8204;53.582;10.080;2023-09-12T09:51:32;100341.19;;;24.16;100.00
16194;BME280;8204;53.582;10.080;2023-09-12T09:53:58;100348.47;;;24.21;100.00
16194;BME280;8204;53.582;10.080;2023-09-12T09:56:25;100394.03;;;24.26;100.00
16194;BME280;8204;53.582;10.080;2023-09-12T09:58:55;100406.94;;;24.28;100.00
16194;BME280;8204;53.582;10.080;2023-09-12T10:01:26;100421.41;;;24.32;100.00
16194;BME280;8204;53.582;10.080;2023-09-12T10:03:57;100420.34;;;24.33;100.00
16194;BME280;8204;53.582;10.080;2023-09-12T10:06:23;100427.59;;;24.33;100.00
16194;BME280;8204;53.582;10.080;2023-09-12T10:08:53;100423.56;;;24.30;100.00
16194;BME280;8204;53.582;10.080;2023-09-12T10:11:24;100413.59;;;24.26;100.00
16194;BME280;8204;53.582;10.080;2023-09-12T10:13:53;100387.31;;;24.23;100.00
16194;BME280;8204;53.582;10.080;2023-09-12T10:16:23;100389.69;;;24.20;100.00
16194;BME280;8204;53.582;10.080;2023-09-12T10:18:58;100378.69;;;24.16;100.00
16194;BME280;8204;53.582;10.080;2023-09-12T10:21:29;100378.97;;;24.15;100.00
16194;BME280;8204;53.582;10.080;2023-09-12T10:23:58;100393.41;;;24.14;100.00
16194;BME280;8204;53.582;10.080;2023-09-12T10:26:24;100397.13;;;24.13;100.00
16194;BME280;8204;53.582;10.080;2023-09-12T10:28:50;100388.03;;;24.14;100.00
16194;BME280;8204;53.582;10.080;2023-09-12T10:31:16;100404.13;;;24.14;100.00
16194;BME280;8204;53.582;10.080;2023-09-12T10:33:43;100391.78;;;24.13;100.00
16194;BME280;8204;53.582;10.080;2023-09-12T10:36:11;100376.53;;;24.13;100.00
16194;BME280;8204;53.582;10.080;2023-09-12T10:38:42;100378.91;;;24.10;100.00
16194;BME280;8204;53.582;10.080;2023-09-12T10:41:13;100360.19;;;24.10;100.00
16194;BME280;8204;53.582;10.080;2023-09-12T10:43:43;100357.50;;;24.10;100.00
16194;BME280;8204;53.582;10.080;2023-09-12T10:46:12;100352.94;;;24.10;100.00
16194;BME280;8204;53.582;10.080;2023-09-12T10:48:38;100354.25;;;24.08;100.00
16194;BME280;8204;53.582;10.080;2023-09-12T10:51:07;100363.13;;;24.08;100.00
16194;BME280;8204;53.582;10.080;2023-09-12T10:53:35;100355.31;;;24.07;100.00
16194;BME280;8204;53.582;10.080;2023-09-12T11:01:43;100428.69;;;24.06;100.00
16194;BME280;8204;53.582;10.080;2023-09-12T11:06:50;100434.59;;;24.08;100.00
16194;BME280;8204;53.582;10.080;2023-09-12T11:09:26;100449.03;;;24.07;100.00
16194;BME280;8204;53.582;10.080;2023-09-12T11:11:58;100504.41;;;24.01;100.00
16194;BME280;8204;53.582;10.080;2023-09-12T11:14:25;100492.81;;;23.96;100.00
16194;BME280;8204;53.582;10.080;2023-09-12T11:19:44;100478.34;;;23.92;100.00
16194;BME280;8204;53.582;10.080;2023-09-12T11:24:48;100445.66;;;23.90;100.00
16194;BME280;8204;53.582;10.080;2023-09-12T11:27:14;100464.38;;;23.90;100.00
16194;BME280;8204;53.582;10.080;2023-09-12T11:29:40;100463.03;;;23.87;100.00
16194;BME280;8204;53.582;10.080;2023-09-12T11:32:07;100457.66;;;23.87;100.00
16194;BME280;8204;53.582;10.080;2023-09-12T11:34:43;100447.22;;;23.86;100.00
16194;BME280;8204;53.582;10.080;2023-09-12T11:37:10;100458.16;;;23.84;100.00
16194;BME280;8204;53.582;10.080;2023-09-12T11:39:47;100454.69;;;23.84;100.00
16194;BME280;8204;53.582;10.080;2023-09-12T11:42:14;100435.94;;;23.84;100.00
16194;BME280;8204;53.582;10.080;2023-09-12T11:44:40;100422.56;;;23.84;100.00
16194;BME280;8204;53.582;10.080;2023-09-12T11:47:06;100420.94;;;23.83;100.00
16194;BME280;8204;53.582;10.080;2023-09-12T11:49:36;100428.97;;;23.83;100.00
16194;BME280;8204;53.582;10.080;2023-09-12T11:52:03;100439.69;;;23.83;100.00
16194;BME280;8204;53.582;10.080;2023-09-12T11:54:29;100425.25;;;23.84;100.00
16194;BME280;8204;53.582;10.080;2023-09-12T11:56:57;100441.88;;;23.86;100.00
16194;BME280;8204;53.582;10.080;2023-09-12T11:59:25;100414.03;;;23.87;100.00
16194;BME280;8204;53.582;10.080;2023-09-12T12:01:52;100422.88;;;23.87;100.00
16194;BME280;8204;53.582;10.080;2023-09-12T12:04:23;100419.38;;;23.87;100.00
16194;BME280;8204;53.582;10.080;2023-09-12T12:06:52;100402.50;;;23.86;100.00
16194;BME280;8204;53.582;10.080;2023-09-12T12:09:18;100387.25;;;23.87;100.00
16194;BME280;8204;53.582;10.080;2023-09-12T12:11:46;100364.00;;;23.87;100.00
16194;BME280;8204;53.582;10.080;2023-09-12T12:14:13;100341.75;;;23.87;100.00
16194;BME280;8204;53.582;10.080;2023-09-12T12:16:43;100331.03;;;23.87;100.00
16194;BME280;8204;53.582;10.080;2023-09-12T12:19:09;100297.88;;;23.88;100.00
16194;BME280;8204;53.582;10.080;2023-09-12T12:21:37;100292.78;;;23.86;100.00
16194;BME280;8204;53.582;10.080;2023-09-12T12:24:03;100289.31;;;23.86;100.00
16194;BME280;8204;53.582;10.080;2023-09-12T12:26:30;100291.44;;;23.84;100.00
16194;BME280;8204;53.582;10.080;2023-09-12T12:28:56;100272.69;;;23.84;100.00
16194;BME280;8204;53.582;10.080;2023-09-12T12:31:23;100260.94;;;23.85;100.00
16194;BME280;8204;53.582;10.080;2023-09-12T12:33:53;100254.75;;;23.84;100.00
16194;BME280;8204;53.582;10.080;2023-09-12T12:36:19;100250.22;;;23.85;100.00
16194;BME280;8204;53.582;10.080;2023-09-12T12:38:49;100221.31;;;23.87;100.00
16194;BME280;8204;53.582;10.080;2023-09-12T12:41:16;100217.56;;;23.88;100.00
16194;BME280;8204;53.582;10.080;2023-09-12T12:43:42;100212.22;;;23.88;100.00
16194;BME280;8204;53.582;10.080;2023-09-12T12:46:12;100227.22;;;23.89;100.00
16194;BME280;8204;53.582;10.080;2023-09-12T12:48:39;100229.63;;;23.90;100.00
16194;BME280;8204;53.582;10.080;2023-09-12T12:53:44;100206.38;;;23.96;100.00
16194;BME280;8204;53.582;10.080;2023-09-12T12:56:14;100223.25;;;23.96;100.00
16194;BME280;8204;53.582;10.080;2023-09-12T12:58:48;100274.94;;;23.97;100.00
16194;BME280;8204;53.582;10.080;2023-09-12T13:01:15;100262.91;;;23.99;100.00